Time;durP1;ratioP1;P1;durP2;ratioP2;P2;SDS_P1;SDS_P2;PMS_P1;PMS_P2;Temp;Humidity;BMP_temperature;BMP_pressure;BME280_temperature;BME280_humidity;BME280_pressure;Samples;Min_cycle;Max_cycle;Signal;HPM_P1;HPM_P2
2022/05/28 00:00:55;;;;;;;14.82;2.65;;;10.70;75.00;;;;;;5046402;28;20096;-43
2022/05/28 00:03:21;;;;;;;10.95;3.15;;;10.80;74.50;;;;;;5038015;28;20044;-46
2022/05/28 00:05:47;;;;;;;17.42;3.00;;;10.80;74.40;;;;;;5051744;28;20041;-43
2022/05/28 00:08:16;;;;;;;9.68;1.83;;;10.80;74.10;;;;;;5044428;28;20031;-44
2022/05/28 00:10:45;;;;;;;19.15;2.95;;;10.80;73.70;;;;;;5048911;28;20047;-45
2022/05/28 00:13:11;;;;;;;14.27;2.33;;;10.90;73.90;;;;;;5057218;28;20021;-44
2022/05/28 00:15:37;;;;;;;11.23;3.20;;;10.90;74.20;;;;;;5051243;28;20067;-44
2022/05/28 00:18:02;;;;;;;12.02;2.78;;;10.90;74.40;;;;;;5049624;28;20033;-45
2022/05/28 00:20:29;;;;;;;13.73;2.75;;;10.90;74.30;;;;;;5050444;28;20032;-45
2022/05/28 00:22:55;;;;;;;14.68;3.75;;;10.90;74.40;;;;;;5032440;28;20350;-47
2022/05/28 00:25:21;;;;;;;18.30;3.60;;;10.90;73.80;;;;;;5028929;28;20095;-45
2022/05/28 00:27:46;;;;;;;16.65;2.67;;;10.80;72.60;;;;;;5010810;28;20061;-45
2022/05/28 00:30:15;;;;;;;12.15;2.63;;;10.90;73.10;;;;;;5032299;28;20033;-47
2022/05/28 00:32:41;;;;;;;12.43;2.53;;;10.80;73.70;;;;;;5029890;28;20087;-44
2022/05/28 00:35:10;;;;;;;15.00;2.53;;;10.90;73.90;;;;;;5043295;28;20020;-46
2022/05/28 00:37:36;;;;;;;9.10;2.40;;;10.90;74.40;;;;;;5050268;28;20033;-44
2022/05/28 00:40:05;;;;;;;14.60;3.60;;;10.90;75.50;;;;;;5046346;28;20085;-43
2022/05/28 00:42:30;;;;;;;13.27;2.97;;;10.90;76.30;;;;;;5037244;28;20049;-44
2022/05/28 00:44:56;;;;;;;11.57;2.80;;;10.90;76.90;;;;;;5028753;28;20454;-43
2022/05/28 00:47:22;;;;;;;15.07;2.60;;;10.90;76.90;;;;;;5029567;28;20575;-44
2022/05/28 00:49:48;;;;;;;11.10;2.60;;;10.80;76.10;;;;;;5037261;28;20036;-43
2022/05/28 00:52:14;;;;;;;9.20;2.85;;;10.80;75.60;;;;;;5036262;28;20106;-45
2022/05/28 00:54:46;;;;;;;11.93;3.28;;;10.80;75.50;;;;;;5029122;28;20037;-43
2022/05/28 00:57:13;;;;;;;11.82;2.38;;;10.80;75.30;;;;;;5030234;28;20072;-44
2022/05/28 00:59:41;;;;;;;17.98;2.67;;;10.80;75.00;;;;;;5037201;28;20032;-44
2022/05/28 01:02:19;;;;;;;12.75;2.65;;;10.90;75.80;;;;;;5039490;28;20038;-47
2022/05/28 01:04:58;;;;;;;16.20;3.08;;;10.90;78.00;;;;;;5029497;28;20148;-42
2022/05/28 01:07:42;;;;;;;16.00;2.88;;;10.70;79.50;;;;;;5029684;28;20049;-42
2022/05/28 01:10:23;;;;;;;13.77;3.60;;;10.50;79.50;;;;;;5030538;28;20135;-42
2022/05/28 01:13:24;;;;;;;13.20;2.70;;;10.50;79.30;;;;;;5029034;28;20022;-41
2022/05/28 01:15:57;;;;;;;10.63;2.63;;;10.40;78.40;;;;;;5026526;28;20069;-44
2022/05/28 01:18:31;;;;;;;10.88;3.05;;;10.50;77.50;;;;;;5027138;28;20064;-45
2022/05/28 01:21:15;;;;;;;14.57;3.63;;;10.40;78.00;;;;;;5027551;28;20519;-41
2022/05/28 01:23:49;;;;;;;18.55;2.95;;;10.50;79.00;;;;;;5029653;28;20061;-44
2022/05/28 01:26:35;;;;;;;19.38;3.97;;;10.40;79.30;;;;;;5028198;28;20105;-42
2022/05/28 01:29:06;;;;;;;14.48;3.75;;;10.50;79.20;;;;;;5027894;28;20045;-41
2022/05/28 01:31:33;;;;;;;20.33;3.42;;;10.50;79.20;;;;;;5028302;28;20024;-43
2022/05/28 01:34:02;;;;;;;16.88;3.35;;;10.60;79.60;;;;;;5029986;28;20083;-41
2022/05/28 01:36:33;;;;;;;22.80;3.92;;;10.50;79.00;;;;;;5029425;28;20391;-41
2022/05/28 01:38:59;;;;;;;17.52;4.35;;;10.50;78.60;;;;;;5028583;28;20040;-41
2022/05/28 01:41:29;;;;;;;9.23;2.47;;;10.50;78.80;;;;;;5028517;28;20088;-58
2022/05/28 01:43:56;;;;;;;11.50;2.45;;;10.30;79.40;;;;;;5040172;28;20021;-52
2022/05/28 01:46:27;;;;;;;13.10;2.10;;;9.90;80.90;;;;;;5049576;28;20043;-51
2022/05/28 01:48:54;;;;;;;11.30;2.78;;;9.70;82.00;;;;;;5032255;28;20029;-49
2022/05/28 01:51:25;;;;;;;17.10;3.20;;;9.70;83.10;;;;;;5029377;28;20458;-55
2022/05/28 01:54:07;;;;;;;10.15;3.05;;;9.60;83.60;;;;;;5039636;28;20101;-50
2022/05/28 01:56:38;;;;;;;11.95;1.90;;;9.60;83.50;;;;;;5039341;28;20056;-49
2022/05/28 01:59:04;;;;;;;11.43;1.92;;;9.50;83.40;;;;;;5011620;28;20029;-49
2022/05/28 02:01:29;;;;;;;10.95;2.17;;;9.40;83.40;;;;;;5030889;28;20078;-51
2022/05/28 02:03:58;;;;;;;16.60;3.08;;;9.40;84.10;;;;;;5030885;28;20025;-48
2022/05/28 02:06:25;;;;;;;23.08;3.67;;;9.40;84.90;;;;;;5038259;28;20354;-49
2022/05/28 02:08:53;;;;;;;19.13;4.53;;;9.50;85.40;;;;;;5032904;28;20112;-47
2022/05/28 02:11:26;;;;;;;11.48;3.30;;;9.50;85.70;;;;;;5030377;28;20076;-46
2022/05/28 02:14:19;;;;;;;20.38;4.57;;;9.70;84.60;;;;;;5044292;28;20025;-47
2022/05/28 02:16:57;;;;;;;14.63;3.80;;;9.90;84.20;;;;;;5033977;28;20029;-45
2022/05/28 02:19:32;;;;;;;14.80;3.67;;;9.90;83.70;;;;;;5028153;28;20056;-47
2022/05/28 02:22:05;;;;;;;13.43;3.08;;;10.00;83.20;;;;;;5039313;28;20118;-43
2022/05/28 02:24:37;;;;;;;16.75;3.72;;;10.10;82.00;;;;;;5046732;28;20052;-43
2022/05/28 02:27:10;;;;;;;16.52;3.53;;;10.20;81.90;;;;;;5047995;28;20522;-43
2022/05/28 02:29:36;;;;;;;17.17;4.72;;;10.20;81.70;;;;;;5035074;28;20029;-43
2022/05/28 02:32:15;;;;;;;16.70;3.35;;;10.20;81.50;;;;;;5029334;28;20036;-44
2022/05/28 02:34:45;;;;;;;16.40;3.88;;;10.30;81.60;;;;;;5034877;28;20029;-41
2022/05/28 02:37:21;;;;;;;9.43;2.47;;;10.30;82.10;;;;;;5047338;28;20071;-41
2022/05/28 02:39:47;;;;;;;12.23;2.58;;;10.20;80.80;;;;;;5024258;28;20037;-41
2022/05/28 02:42:13;;;;;;;10.02;2.80;;;9.90;81.40;;;;;;5049045;28;20476;-40
2022/05/28 02:44:39;;;;;;;15.73;3.70;;;9.80;82.90;;;;;;5044384;28;20037;-41
2022/05/28 02:47:05;;;;;;;18.55;3.97;;;9.70;83.60;;;;;;5043398;28;20029;-40
2022/05/28 02:49:36;;;;;;;18.10;3.10;;;9.70;84.50;;;;;;5029344;28;20037;-40
2022/05/28 02:52:04;;;;;;;17.10;3.47;;;9.70;84.90;;;;;;5028838;28;20045;-43
2022/05/28 02:54:30;;;;;;;18.20;3.60;;;9.70;85.30;;;;;;5044532;28;20029;-40
2022/05/28 02:56:56;;;;;;;19.08;4.20;;;9.70;84.90;;;;;;5029058;28;20038;-41
2022/05/28 02:59:22;;;;;;;23.25;6.85;;;9.90;83.00;;;;;;5028780;28;20025;-42
2022/05/28 03:01:49;;;;;;;25.30;3.88;;;10.10;82.00;;;;;;5038133;28;20064;-42
2022/05/28 03:04:15;;;;;;;19.48;4.43;;;10.30;81.40;;;;;;5049142;28;20033;-43
2022/05/28 03:06:40;;;;;;;22.83;7.47;;;10.40;81.40;;;;;;5040637;28;20029;-41
2022/05/28 03:09:08;;;;;;;19.10;4.25;;;10.40;81.80;;;;;;5028911;28;20052;-41
2022/05/28 03:11:35;;;;;;;18.77;3.67;;;10.40;81.80;;;;;;5043474;28;20036;-40
2022/05/28 03:14:01;;;;;;;16.58;3.80;;;10.40;81.70;;;;;;5047855;28;20055;-40
2022/05/28 03:16:27;;;;;;;13.75;3.05;;;10.40;81.60;;;;;;5047674;28;20029;-41
2022/05/28 03:18:53;;;;;;;15.82;3.58;;;10.40;80.60;;;;;;5037012;28;20040;-41
2022/05/28 03:21:19;;;;;;;25.73;4.72;;;10.40;80.40;;;;;;5043258;28;20036;-41
2022/05/28 03:23:47;;;;;;;20.20;5.90;;;10.40;80.80;;;;;;5051571;28;20354;-40
2022/05/28 03:26:24;;;;;;;21.80;4.78;;;10.40;80.70;;;;;;5045419;28;20450;-40
2022/05/28 03:28:51;;;;;;;15.30;3.95;;;10.40;81.30;;;;;;5038414;28;20037;-41
2022/05/28 03:31:18;;;;;;;16.85;4.18;;;10.40;81.70;;;;;;5031978;28;20033;-41
2022/05/28 03:33:44;;;;;;;19.23;3.67;;;10.40;81.70;;;;;;5031252;28;20481;-42
2022/05/28 03:36:10;;;;;;;18.63;4.10;;;10.50;81.80;;;;;;5031008;28;20029;-44
2022/05/28 03:38:36;;;;;;;16.85;3.83;;;10.50;81.50;;;;;;5032435;28;20568;-42
2022/05/28 03:41:02;;;;;;;16.25;4.95;;;10.60;81.80;;;;;;5047762;28;20332;-41
2022/05/28 03:43:31;;;;;;;17.73;3.65;;;10.60;81.70;;;;;;5052198;28;20028;-44
2022/05/28 03:45:59;;;;;;;19.25;4.70;;;10.50;82.90;;;;;;5047326;28;20041;-49
2022/05/28 03:48:25;;;;;;;14.38;3.13;;;10.40;83.60;;;;;;5052070;28;20082;-56
2022/05/28 03:50:53;;;;;;;9.50;1.92;;;10.10;84.20;;;;;;5049407;28;20048;-57
2022/05/28 03:53:19;;;;;;;10.85;2.83;;;9.70;84.40;;;;;;5036342;28;20406;-61
2022/05/28 03:55:45;;;;;;;11.57;3.08;;;9.30;85.80;;;;;;5029244;28;20031;-60
2022/05/28 03:58:11;;;;;;;12.57;2.97;;;9.20;86.70;;;;;;5030409;28;20022;-62
2022/05/28 04:00:37;;;;;;;17.80;2.95;;;9.20;87.00;;;;;;5039784;28;20127;-58
2022/05/28 04:03:03;;;;;;;27.25;5.55;;;9.20;87.40;;;;;;5051194;28;20128;-50
2022/05/28 04:05:29;;;;;;;19.10;4.55;;;9.30;87.70;;;;;;5036782;28;20033;-49
2022/05/28 04:07:55;;;;;;;20.55;4.30;;;9.40;87.80;;;;;;5035297;28;20033;-50
2022/05/28 04:10:20;;;;;;;19.42;3.60;;;9.60;87.40;;;;;;5049782;28;20035;-48
2022/05/28 04:12:48;;;;;;;19.95;3.83;;;9.70;85.70;;;;;;5051718;28;20029;-48
2022/05/28 04:15:14;;;;;;;13.32;3.50;;;9.70;85.20;;;;;;5044027;28;20086;-47
2022/05/28 04:17:40;;;;;;;20.88;3.70;;;9.80;84.90;;;;;;5050653;28;20025;-47
2022/05/28 04:20:08;;;;;;;17.67;4.85;;;9.80;84.70;;;;;;5049625;28;20036;-46
2022/05/28 04:22:33;;;;;;;18.98;4.13;;;9.80;85.20;;;;;;5038722;28;20117;-46
2022/05/28 04:24:59;;;;;;;15.45;4.00;;;9.90;84.80;;;;;;5032411;28;20134;-44
2022/05/28 04:27:25;;;;;;;19.13;3.40;;;9.90;84.40;;;;;;5050524;28;20591;-44
2022/05/28 04:29:50;;;;;;;17.27;4.22;;;9.90;84.30;;;;;;5049380;28;20033;-44
2022/05/28 04:32:16;;;;;;;19.98;4.28;;;9.90;84.30;;;;;;5050224;28;20037;-43
2022/05/28 04:34:41;;;;;;;22.23;4.57;;;10.00;84.50;;;;;;5044159;28;20025;-42
2022/05/28 04:37:07;;;;;;;21.27;3.83;;;10.10;84.40;;;;;;5050117;28;20103;-42
2022/05/28 04:39:33;;;;;;;16.50;4.07;;;10.20;84.20;;;;;;5050426;28;20159;-43
2022/05/28 04:41:58;;;;;;;19.80;4.85;;;10.30;83.90;;;;;;5045857;28;20155;-43
2022/05/28 04:44:24;;;;;;;27.15;4.50;;;10.30;83.80;;;;;;5048032;28;20049;-42
2022/05/28 04:46:49;;;;;;;17.17;5.18;;;10.40;83.60;;;;;;5046711;28;20051;-43
2022/05/28 04:49:15;;;;;;;19.42;5.68;;;10.40;83.10;;;;;;5050891;28;20033;-41
2022/05/28 04:51:41;;;;;;;17.35;4.97;;;10.40;82.70;;;;;;5046721;28;20045;-43
2022/05/28 04:54:07;;;;;;;20.67;3.95;;;10.50;82.80;;;;;;5030692;28;20049;-41
2022/05/28 04:56:33;;;;;;;30.27;4.90;;;10.60;83.10;;;;;;5029686;28;20118;-41
2022/05/28 04:59:01;;;;;;;24.88;5.60;;;10.80;82.90;;;;;;5046163;28;20034;-42
2022/05/28 05:01:27;;;;;;;17.38;4.28;;;10.80;83.10;;;;;;5017855;28;20037;-44
2022/05/28 05:03:53;;;;;;;16.42;4.35;;;10.70;81.20;;;;;;5047901;28;20044;-43
2022/05/28 05:06:19;;;;;;;16.45;3.72;;;10.60;80.10;;;;;;5030479;28;20031;-41
2022/05/28 05:08:45;;;;;;;17.27;3.03;;;10.70;81.00;;;;;;5038374;28;20044;-41
2022/05/28 05:11:14;;;;;;;14.80;3.00;;;10.70;81.80;;;;;;5029624;28;20385;-40
2022/05/28 05:13:39;;;;;;;24.40;4.53;;;10.70;82.20;;;;;;5030406;28;20459;-41
2022/05/28 05:16:09;;;;;;;19.50;4.05;;;10.70;82.80;;;;;;5050453;28;20025;-43
2022/05/28 05:18:35;;;;;;;16.38;4.00;;;10.90;83.00;;;;;;5039006;28;20055;-41
2022/05/28 05:21:00;;;;;;;15.85;3.50;;;11.00;82.60;;;;;;5050173;28;20033;-40
2022/05/28 05:23:26;;;;;;;19.77;4.10;;;11.10;80.80;;;;;;5047249;28;20044;-40
2022/05/28 05:25:52;;;;;;;18.55;4.68;;;11.00;80.00;;;;;;5050253;28;20025;-42
2022/05/28 05:28:17;;;;;;;14.95;4.03;;;11.00;80.60;;;;;;5046710;28;20087;-41
2022/05/28 05:30:45;;;;;;;15.35;3.78;;;11.00;80.60;;;;;;5050283;28;20032;-41
2022/05/28 05:33:11;;;;;;;24.85;5.90;;;11.10;80.30;;;;;;5041784;28;20029;-43
2022/05/28 05:35:36;;;;;;;20.65;4.35;;;11.10;78.80;;;;;;5029094;28;20086;-43
2022/05/28 05:38:05;;;;;;;16.70;3.72;;;11.20;78.60;;;;;;5029896;28;20095;-42
2022/05/28 05:40:33;;;;;;;16.15;4.55;;;11.30;77.40;;;;;;5030150;28;20323;-42
2022/05/28 05:42:59;;;;;;;9.93;2.78;;;11.40;77.40;;;;;;5027278;28;20538;-45
2022/05/28 05:45:24;;;;;;;9.00;2.85;;;11.60;75.80;;;;;;5029707;28;20104;-43
2022/05/28 05:47:50;;;;;;;13.02;3.53;;;11.70;75.20;;;;;;5028457;28;20033;-42
2022/05/28 05:50:15;;;;;;;10.80;2.63;;;11.90;75.00;;;;;;5029626;28;20115;-42
2022/05/28 05:52:41;;;;;;;15.52;3.33;;;12.00;74.90;;;;;;5027883;28;20041;-43
2022/05/28 05:55:07;;;;;;;17.15;3.35;;;12.10;74.80;;;;;;5027765;28;20033;-43
2022/05/28 05:57:33;;;;;;;13.85;3.03;;;12.20;74.50;;;;;;5030059;28;20037;-46
2022/05/28 05:59:59;;;;;;;13.68;3.47;;;12.20;74.60;;;;;;5028486;28;20025;-45
2022/05/28 06:02:26;;;;;;;19.48;4.07;;;12.40;74.20;;;;;;5027009;28;20083;-43
2022/05/28 06:04:53;;;;;;;15.57;3.97;;;12.50;75.20;;;;;;5028791;28;20037;-42
2022/05/28 06:07:19;;;;;;;14.00;4.15;;;12.30;75.50;;;;;;5034247;28;20044;-43
2022/05/28 06:09:45;;;;;;;12.32;3.65;;;12.30;76.60;;;;;;5040044;28;20438;-44
2022/05/28 06:12:10;;;;;;;18.50;4.28;;;12.40;75.90;;;;;;5027561;28;20052;-43
2022/05/28 06:14:38;;;;;;;26.98;4.78;;;12.50;75.40;;;;;;5036594;28;20037;-43
2022/05/28 06:17:04;;;;;;;22.25;5.78;;;12.60;75.50;;;;;;5030962;28;20045;-42
2022/05/28 06:19:31;;;;;;;15.90;3.42;;;12.70;74.90;;;;;;5029988;28;20037;-42
2022/05/28 06:22:00;;;;;;;18.83;3.72;;;12.20;75.80;;;;;;5030055;28;20033;-44
2022/05/28 06:24:26;;;;;;;;;;;11.60;78.50;;;;;;5047362;28;20536;-42
2022/05/28 06:26:52;;;;;;;20.10;4.82;;;11.40;79.90;;;;;;5029948;28;19910;-44
2022/05/28 06:29:18;;;;;;;10.57;2.80;;;11.40;80.20;;;;;;5032462;28;20033;-47
2022/05/28 06:31:44;;;;;;;18.75;3.95;;;11.50;80.20;;;;;;5039687;28;20445;-44
2022/05/28 06:34:09;;;;;;;18.63;4.05;;;11.60;80.10;;;;;;5027460;28;20087;-48
2022/05/28 06:36:35;;;;;;;18.60;5.13;;;11.70;79.60;;;;;;5041756;28;20029;-43
2022/05/28 06:39:00;;;;;;;15.35;4.72;;;11.80;79.90;;;;;;5034564;28;20105;-43
2022/05/28 06:41:26;;;;;;;18.58;4.10;;;11.90;78.80;;;;;;5028807;28;20030;-43
2022/05/28 06:43:52;;;;;;;17.85;4.10;;;12.00;78.60;;;;;;5027192;28;20530;-46
2022/05/28 06:46:18;;;;;;;22.50;6.22;;;12.10;77.50;;;;;;5027696;28;20025;-47
2022/05/28 06:48:43;;;;;;;14.00;3.85;;;11.90;75.10;;;;;;5025390;28;20034;-44
2022/05/28 06:51:09;;;;;;;16.98;4.22;;;11.80;74.90;;;;;;5031343;28;20385;-44
2022/05/28 06:53:43;;;;;;;14.30;4.75;;;11.90;74.50;;;;;;5031485;28;20052;-44
2022/05/28 06:56:10;;;;;;;16.55;4.28;;;12.20;75.40;;;;;;5039868;28;20342;-43
2022/05/28 06:58:37;;;;;;;27.13;5.60;;;12.50;72.60;;;;;;5036900;28;20055;-43
2022/05/28 07:01:11;;;;;;;22.80;4.82;;;12.70;71.50;;;;;;5031459;28;20033;-45
2022/05/28 07:03:43;;;;;;;15.48;4.05;;;12.80;72.70;;;;;;5027578;28;20104;-44
2022/05/28 07:06:10;;;;;;;15.10;3.05;;;12.90;71.80;;;;;;5030646;28;20041;-46
2022/05/28 07:08:38;;;;;;;16.17;3.88;;;13.20;70.50;;;;;;5032167;28;20017;-43
2022/05/28 07:11:07;;;;;;;20.27;4.03;;;13.40;71.30;;;;;;5033078;28;20385;-45
2022/05/28 07:13:34;;;;;;;12.50;3.83;;;13.50;69.30;;;;;;5031528;28;20025;-44
2022/05/28 07:16:00;;;;;;;14.23;3.88;;;13.50;67.60;;;;;;5037883;28;20025;-48
2022/05/28 07:18:26;;;;;;;15.63;4.03;;;13.50;68.20;;;;;;5030262;28;20030;-44
2022/05/28 07:20:51;;;;;;;13.80;2.95;;;13.60;66.70;;;;;;5031453;28;20021;-43
2022/05/28 07:23:25;;;;;;;16.50;3.90;;;13.80;66.10;;;;;;5029563;28;20045;-43
2022/05/28 07:26:05;;;;;;;13.77;2.75;;;13.50;66.20;;;;;;5026365;28;20068;-46
2022/05/28 07:28:33;;;;;;;;;;;13.30;67.10;;;;;;5029585;28;20041;-43
2022/05/28 07:30:58;;;;;;;14.43;3.22;;;13.20;68.60;;;;;;5031704;28;20302;-44
2022/05/28 07:33:25;;;;;;;15.43;3.65;;;12.70;71.40;;;;;;5038732;28;20079;-43
2022/05/28 07:35:52;;;;;;;20.67;4.40;;;12.30;74.40;;;;;;5030217;28;20021;-43
2022/05/28 07:38:18;;;;;;;21.33;3.95;;;12.20;76.70;;;;;;5026671;28;20086;-44
2022/05/28 07:40:43;;;;;;;14.35;3.45;;;12.20;76.90;;;;;;5027275;28;20450;-43
2022/05/28 07:43:10;;;;;;;18.65;4.40;;;12.30;75.80;;;;;;5030630;28;20029;-43
2022/05/28 07:45:38;;;;;;;10.32;3.20;;;13.00;73.50;;;;;;5030399;28;20315;-44
2022/05/28 07:48:04;;;;;;;19.45;3.25;;;13.70;71.30;;;;;;5032933;28;20037;-43
2022/05/28 07:50:30;;;;;;;16.60;3.38;;;14.10;68.70;;;;;;5033221;28;20030;-44
2022/05/28 07:52:57;;;;;;;11.93;3.45;;;14.50;66.00;;;;;;5034002;28;20459;-46
2022/05/28 07:55:23;;;;;;;11.73;4.00;;;14.80;64.10;;;;;;5031090;28;20021;-45
2022/05/28 07:57:49;;;;;;;11.40;3.08;;;14.90;61.40;;;;;;5044847;28;20430;-43
2022/05/28 08:00:15;;;;;;;15.40;3.88;;;14.90;61.30;;;;;;5051269;28;20048;-45
2022/05/28 08:02:43;;;;;;;11.77;2.97;;;15.00;61.70;;;;;;5032569;28;20053;-44
2022/05/28 08:05:09;;;;;;;12.30;2.60;;;15.20;62.00;;;;;;5030404;28;20474;-44
2022/05/28 08:07:34;;;;;;;14.38;3.47;;;15.20;60.00;;;;;;5027650;28;20037;-45
2022/05/28 08:10:03;;;;;;;15.15;3.42;;;15.00;61.20;;;;;;5031085;28;20056;-44
2022/05/28 08:12:31;;;;;;;11.87;3.63;;;14.40;63.60;;;;;;5029178;28;20032;-44
2022/05/28 08:14:58;;;;;;;12.63;3.45;;;13.70;64.90;;;;;;5031457;28;20268;-46
2022/05/28 08:17:24;;;;;;;13.05;3.50;;;13.20;66.90;;;;;;5044769;28;20035;-44
2022/05/28 08:19:52;;;;;;;20.02;3.80;;;13.00;68.00;;;;;;5047303;28;20041;-45
2022/05/28 08:25:04;;;;;;;9.52;3.55;;;14.30;64.10;;;;;;5030092;28;20032;-47
2022/05/28 08:27:30;;;;;;;13.95;3.40;;;15.00;62.30;;;;;;5051309;28;20032;-45
2022/05/28 08:29:55;;;;;;;16.63;3.60;;;15.00;62.70;;;;;;5046940;28;20029;-45
2022/05/28 08:32:23;;;;;;;13.18;3.20;;;15.10;62.10;;;;;;5043535;28;20105;-48
2022/05/28 08:34:49;;;;;;;12.30;3.85;;;15.50;61.90;;;;;;5029868;28;20366;-47
2022/05/28 08:37:14;;;;;;;10.27;2.75;;;15.40;61.00;;;;;;5030797;28;20026;-44
2022/05/28 08:39:40;;;;;;;12.63;3.70;;;15.90;60.00;;;;;;5020387;28;20064;-45
2022/05/28 08:42:09;;;;;;;13.15;3.30;;;15.80;61.30;;;;;;5030359;28;20095;-44
2022/05/28 08:44:41;;;;;;;12.48;4.22;;;15.90;60.10;;;;;;5039248;28;20053;-46
2022/05/28 08:47:17;;;;;;;14.63;3.60;;;15.00;64.60;;;;;;5030334;28;20037;-45
2022/05/28 08:49:44;;;;;;;17.92;3.38;;;14.20;68.90;;;;;;5031429;28;20091;-45
2022/05/28 08:52:28;;;;;;;12.73;4.20;;;13.90;71.40;;;;;;5039486;28;20045;-45
2022/05/28 08:54:59;;;;;;;13.02;3.97;;;14.00;69.10;;;;;;5034664;28;20026;-44
2022/05/28 08:57:33;;;;;;;13.10;3.20;;;13.50;71.40;;;;;;5040391;28;20414;-45
2022/05/28 09:00:04;;;;;;;19.63;4.22;;;12.90;73.00;;;;;;5050940;28;20040;-50
2022/05/28 09:02:38;;;;;;;15.20;4.82;;;12.40;76.90;;;;;;5031909;28;20113;-64
2022/05/28 09:05:05;;;;;;;19.70;4.97;;;11.70;81.30;;;;;;5030577;28;20398;-63
2022/05/28 09:07:35;;;;;;;12.93;4.15;;;11.40;83.50;;;;;;5029312;28;20043;-63
2022/05/28 09:10:01;;;;;;;11.32;3.22;;;11.20;84.60;;;;;;5030431;28;20026;-64
2022/05/28 09:12:42;;;;;;;16.25;3.83;;;10.90;84.40;;;;;;5031462;28;20087;-63
2022/05/28 09:15:10;;;;;;;20.58;5.13;;;10.90;85.40;;;;;;5030671;28;20632;-60
2022/05/28 09:17:56;;;;;;;18.95;4.60;;;10.90;85.60;;;;;;5031383;28;20033;-50
2022/05/28 09:20:27;;;;;;;16.40;3.67;;;11.30;86.70;;;;;;5029887;28;20044;-47
2022/05/28 09:22:53;;;;;;;16.23;3.75;;;12.20;85.00;;;;;;5045579;28;20362;-45
2022/05/28 09:25:23;;;;;;;15.30;3.38;;;12.80;82.00;;;;;;5032141;28;20038;-45
2022/05/28 09:28:09;;;;;;;13.07;3.92;;;12.60;78.30;;;;;;5030267;28;20552;-43
2022/05/28 09:30:40;;;;;;;14.45;2.80;;;12.30;78.30;;;;;;5030683;28;20120;-43
2022/05/28 09:33:28;;;;;;;14.05;3.50;;;12.20;78.70;;;;;;5030487;28;20065;-42
2022/05/28 09:36:26;;;;;;;15.00;3.53;;;12.00;77.10;;;;;;5028826;28;20025;-42
2022/05/28 09:39:25;;;;;;;18.65;4.53;;;12.50;77.30;;;;;;5029671;28;20064;-42
2022/05/28 09:42:11;;;;;;;14.68;3.17;;;13.00;75.30;;;;;;5039998;28;20096;-44
2022/05/28 09:44:53;;;;;;;13.85;3.92;;;12.90;75.20;;;;;;5030935;28;20037;-42
2022/05/28 09:47:20;;;;;;;13.18;3.22;;;12.60;75.20;;;;;;5049879;28;20529;-44
2022/05/28 09:49:55;;;;;;;18.17;3.67;;;12.50;76.20;;;;;;5047131;28;20104;-46
2022/05/28 09:52:24;;;;;;;13.82;3.28;;;13.00;74.70;;;;;;5041371;28;20519;-45
2022/05/28 09:54:50;;;;;;;15.18;3.65;;;13.50;76.20;;;;;;5028379;28;21759;-44
2022/05/28 09:57:25;;;;;;;16.10;4.13;;;14.40;71.40;;;;;;5047562;28;20029;-45
2022/05/28 10:00:03;;;;;;;12.68;3.78;;;14.30;68.60;;;;;;5040980;28;20557;-44
2022/05/28 10:02:35;;;;;;;14.07;2.88;;;13.40;68.70;;;;;;5032705;28;20517;-44
2022/05/28 10:05:12;;;;;;;13.43;3.15;;;13.90;69.10;;;;;;5048133;28;20094;-45
2022/05/28 10:07:42;;;;;;;15.10;3.78;;;14.40;68.00;;;;;;5048016;28;20045;-47
2022/05/28 10:10:18;;;;;;;15.52;4.30;;;14.20;69.40;;;;;;5047212;28;20029;-45
2022/05/28 10:12:44;;;;;;;11.82;3.10;;;14.10;69.20;;;;;;5034468;28;20035;-44
2022/05/28 10:15:13;;;;;;;10.98;3.08;;;14.60;66.40;;;;;;5028535;28;20021;-45
2022/05/28 10:17:43;;;;;;;12.90;3.05;;;14.10;67.30;;;;;;5028139;28;20021;-46
2022/05/28 10:20:18;;;;;;;13.77;3.28;;;13.90;67.90;;;;;;5049015;28;20365;-46
2022/05/28 10:22:46;;;;;;;17.60;3.47;;;14.10;67.70;;;;;;5035845;28;20112;-47
2022/05/28 10:25:38;;;;;;;10.57;2.88;;;14.00;66.50;;;;;;5048779;28;20054;-44
2022/05/28 10:28:06;;;;;;;17.25;4.00;;;14.40;65.10;;;;;;5046824;28;20036;-45
2022/05/28 10:30:36;;;;;;;9.52;3.05;;;14.20;65.50;;;;;;5048521;28;20033;-43
2022/05/28 10:33:14;;;;;;;19.98;3.17;;;13.90;66.80;;;;;;5046045;28;20064;-49
2022/05/28 10:35:40;;;;;;;12.25;3.15;;;13.70;66.30;;;;;;5028301;28;20083;-45
2022/05/28 10:38:20;;;;;;;20.30;3.22;;;13.10;64.10;;;;;;5028264;28;20026;-45
2022/05/28 10:40:56;;;;;;;16.08;3.83;;;13.00;65.90;;;;;;5013425;28;20033;-48
2022/05/28 10:43:37;;;;;;;10.95;3.20;;;13.90;65.20;;;;;;5028339;28;20046;-45
2022/05/28 10:46:22;;;;;;;12.15;2.78;;;14.70;63.60;;;;;;5023966;28;20467;-48
2022/05/28 10:49:07;;;;;;;17.35;3.92;;;15.40;62.70;;;;;;5023207;28;20037;-45
2022/05/28 10:51:53;;;;;;;9.82;2.10;;;15.30;60.60;;;;;;5048572;28;20038;-45
2022/05/28 10:54:37;;;;;;;7.93;1.63;;;15.20;59.10;;;;;;5034113;28;20355;-44
2022/05/28 10:57:25;;;;;;;11.32;2.63;;;15.10;56.60;;;;;;5027571;28;20065;-47
2022/05/28 11:00:03;;;;;;;9.68;2.85;;;15.50;58.90;;;;;;5043451;28;20031;-45
2022/05/28 11:02:38;;;;;;;10.38;2.28;;;15.60;60.70;;;;;;5031553;28;20457;-46
2022/05/28 11:05:41;;;;;;;8.32;2.15;;;15.50;57.30;;;;;;5028118;28;20025;-44
2022/05/28 11:08:38;;;;;;;11.45;2.75;;;15.40;57.80;;;;;;5029882;28;20060;-45
2022/05/28 11:11:24;;;;;;;14.35;3.08;;;15.10;60.20;;;;;;5028212;28;20029;-48
2022/05/28 11:13:56;;;;;;;12.13;3.03;;;14.40;60.90;;;;;;5035913;28;20369;-47
2022/05/28 11:16:41;;;;;;;10.98;2.60;;;14.00;63.10;;;;;;5038805;28;20053;-49
2022/05/28 11:19:28;;;;;;;15.55;2.85;;;14.20;63.80;;;;;;5028922;28;20092;-45
2022/05/28 11:22:20;;;;;;;14.15;3.33;;;15.00;61.80;;;;;;5036113;28;20033;-47
2022/05/28 11:25:04;;;;;;;13.55;3.05;;;15.30;61.40;;;;;;5048681;28;20346;-46
2022/05/28 11:27:48;;;;;;;13.77;2.95;;;14.90;62.70;;;;;;5039835;28;20120;-44
2022/05/28 11:30:22;;;;;;;9.77;2.10;;;14.60;61.60;;;;;;5024321;28;20034;-44
2022/05/28 11:32:53;;;;;;;12.82;3.47;;;14.40;63.20;;;;;;5042801;28;20048;-46
2022/05/28 11:35:31;;;;;;;9.35;3.20;;;13.90;63.90;;;;;;5043563;28;20048;-47
2022/05/28 11:38:24;;;;;;;10.90;2.75;;;13.60;66.00;;;;;;5046849;28;20179;-46
2022/05/28 11:41:10;;;;;;;16.30;3.42;;;13.50;66.20;;;;;;5025052;28;20365;-44
2022/05/28 11:43:40;;;;;;;16.83;3.10;;;13.60;66.70;;;;;;5052083;28;20033;-45
2022/05/28 11:46:29;;;;;;;18.23;3.30;;;13.60;67.60;;;;;;5034851;28;20031;-43
2022/05/28 11:52:21;;;;;;;23.27;3.50;;;14.00;64.00;;;;;;5039493;28;20047;-45
2022/05/28 11:54:53;;;;;;;10.60;2.60;;;13.80;66.80;;;;;;5058001;28;20052;-45
2022/05/28 11:57:33;;;;;;;13.00;2.88;;;13.60;66.80;;;;;;5049634;28;20025;-46
2022/05/28 12:00:02;;;;;;;15.43;2.90;;;13.30;67.90;;;;;;5051877;28;20027;-45
2022/05/28 12:02:32;;;;;;;10.45;3.20;;;13.10;68.40;;;;;;5037441;28;20021;-44
2022/05/28 12:04:58;;;;;;;12.32;2.67;;;13.10;69.00;;;;;;5031611;28;20311;-44
2022/05/28 12:07:29;;;;;;;11.43;3.90;;;13.00;69.20;;;;;;5047065;28;20097;-45
2022/05/28 12:09:55;;;;;;;14.25;3.65;;;13.00;69.90;;;;;;5051718;28;20029;-45
2022/05/28 12:12:58;;;;;;;13.35;2.90;;;13.20;69.60;;;;;;5048597;28;20025;-44
2022/05/28 12:15:31;;;;;;;11.00;2.75;;;13.20;70.30;;;;;;5011923;28;20359;-43
2022/05/28 12:18:02;;;;;;;15.05;3.42;;;13.10;71.40;;;;;;5031161;28;20038;-45
2022/05/28 12:20:33;;;;;;;16.92;2.95;;;13.20;70.70;;;;;;5031515;28;20430;-44
2022/05/28 12:23:03;;;;;;;12.70;3.20;;;13.50;68.80;;;;;;5045140;28;20339;-46
2022/05/28 12:25:29;;;;;;;16.70;3.63;;;14.10;66.50;;;;;;5030867;28;20025;-44
2022/05/28 12:27:54;;;;;;;14.45;2.78;;;14.10;67.30;;;;;;5030429;28;20476;-45
2022/05/28 12:30:37;;;;;;;8.75;2.38;;;14.40;67.20;;;;;;5030101;28;20040;-46
2022/05/28 12:33:03;;;;;;;17.33;3.78;;;15.00;66.00;;;;;;5011838;28;20394;-45
2022/05/28 12:35:49;;;;;;;9.35;2.30;;;15.20;62.50;;;;;;5023115;28;20045;-45
2022/05/28 12:38:41;;;;;;;8.35;2.35;;;15.10;60.70;;;;;;5019499;28;20021;-48
2022/05/28 12:41:17;;;;;;;11.80;1.98;;;14.50;60.10;;;;;;5027742;28;20033;-45
2022/05/28 12:43:52;;;;;;;10.75;2.83;;;14.10;61.70;;;;;;5029326;28;20033;-46
2022/05/28 12:46:21;;;;;;;8.77;1.70;;;14.20;63.10;;;;;;5026056;28;20047;-44
2022/05/28 12:49:03;;;;;;;10.10;3.20;;;14.30;63.10;;;;;;5028528;28;20112;-47
2022/05/28 12:51:34;;;;;;;10.90;2.15;;;14.10;61.70;;;;;;5047945;28;20294;-46
2022/05/28 12:54:04;;;;;;;12.13;2.15;;;13.90;63.90;;;;;;5035238;28;20070;-46
2022/05/28 12:56:33;;;;;;;10.30;3.13;;;13.90;65.50;;;;;;5030479;28;20469;-44
2022/05/28 12:59:23;;;;;;;10.68;2.38;;;14.10;63.80;;;;;;5029081;28;20122;-45
2022/05/28 13:02:16;;;;;;;11.13;2.50;;;14.40;61.50;;;;;;5029956;28;20040;-47